createdAt,value
2019-05-01T00:01:01.702Z,74.10
2019-05-01T00:03:49.640Z,74.39
2019-05-01T00:06:22.236Z,74.71
2019-05-01T00:08:55.756Z,74.85
2019-05-01T00:11:26.750Z,75.19
2019-05-01T00:13:57.862Z,74.86
2019-05-01T00:16:28.856Z,74.54
2019-05-01T00:18:59.886Z,74.94
2019-05-01T00:21:30.935Z,74.86
2019-05-01T00:24:01.968Z,75.14
2019-05-01T00:26:32.908Z,75.14
2019-05-01T00:29:03.945Z,75.02
2019-05-01T00:31:34.992Z,74.75
2019-05-01T00:34:06.008Z,74.65
2019-05-01T00:36:37.005Z,74.98
2019-05-01T00:39:09.464Z,75.34
2019-05-01T00:41:40.481Z,75.51
2019-05-01T00:44:11.514Z,75.61
2019-05-01T00:46:42.443Z,75.95
2019-05-01T00:49:13.467Z,75.98
2019-05-01T00:51:45.972Z,75.69
2019-05-01T00:54:17.815Z,75.54
2019-05-01T00:56:50.401Z,75.26
2019-05-01T00:59:22.966Z,75.46
2019-05-01T01:02:06.091Z,75.55
2019-05-01T01:04:37.114Z,75.78
2019-05-01T01:07:09.684Z,75.71
2019-05-01T01:09:42.178Z,75.93
2019-05-01T01:12:13.164Z,76.14
2019-05-01T01:14:47.342Z,76.43
2019-05-01T01:17:18.364Z,76.49
2019-05-01T01:19:49.378Z,76.32
2019-05-01T01:22:20.478Z,76.47
2019-05-01T01:24:53.161Z,76.44
2019-05-01T01:27:26.046Z,76.18
2019-05-01T01:29:57.066Z,76.48
2019-05-01T01:32:28.075Z,76.43
2019-05-01T01:34:59.124Z,75.97
2019-05-01T01:37:30.120Z,76.19
2019-05-01T01:40:04.698Z,76.63
2019-05-01T01:42:36.288Z,76.72
2019-05-01T01:45:12.458Z,76.94
2019-05-01T01:48:01.440Z,76.66
2019-05-01T01:50:32.876Z,76.58
2019-05-01T01:53:04.067Z,76.22
2019-05-01T01:55:36.212Z,76.45
2019-05-01T01:58:08.408Z,76.29
2019-05-01T02:00:41.110Z,76.47
2019-05-01T02:03:12.468Z,76.45
2019-05-01T02:05:45.186Z,76.39
2019-05-01T02:08:16.427Z,76.46
2019-05-01T02:10:47.520Z,76.76
2019-05-01T02:13:19.995Z,77.21
2019-05-01T02:15:51.890Z,76.97
2019-05-01T02:18:22.916Z,76.88
2019-05-01T02:20:53.958Z,76.38
2019-05-01T02:23:24.992Z,76.27
2019-05-01T02:25:56.162Z,76.39
2019-05-01T02:28:35.169Z,76.30
2019-05-01T02:31:08.470Z,76.49
2019-05-01T02:33:41.467Z,76.66
2019-05-01T02:36:14.662Z,76.77
2019-05-01T02:38:47.824Z,76.09
2019-05-01T02:41:21.895Z,76.73
2019-05-01T02:43:58.329Z,76.30
2019-05-01T02:46:32.020Z,76.63
2019-05-01T02:49:12.179Z,76.64
2019-05-01T02:51:47.432Z,76.46
2019-05-01T02:54:22.604Z,76.08
2019-05-01T02:57:11.462Z,75.69
2019-05-01T02:59:47.354Z,75.89
2019-05-01T03:02:20.102Z,76.18
2019-05-01T03:04:52.897Z,76.31
2019-05-01T03:07:26.167Z,76.06
2019-05-01T03:09:59.175Z,76.09
2019-05-01T03:12:35.006Z,76.47
2019-05-01T03:15:06.590Z,76.32
2019-05-01T03:17:43.432Z,76.27
2019-05-01T03:20:32.511Z,76.39
2019-05-01T03:23:20.586Z,76.50
2019-05-01T03:25:52.324Z,76.96
2019-05-01T03:28:27.509Z,76.77
2019-05-01T03:31:00.114Z,76.87
2019-05-01T03:33:31.217Z,77.00
2019-05-01T03:36:02.340Z,77.01
2019-05-01T03:38:33.493Z,76.65
2019-05-01T03:41:04.680Z,76.28
2019-05-01T03:43:36.367Z,76.05
2019-05-01T03:46:07.994Z,75.60
2019-05-01T03:48:39.375Z,75.34
2019-05-01T03:51:10.519Z,75.43
2019-05-01T03:53:42.085Z,75.21
2019-05-01T03:56:14.048Z,75.31
2019-05-01T03:58:46.733Z,75.26
2019-05-01T04:01:26.359Z,75.24
2019-05-01T04:03:59.784Z,74.48
2019-05-01T04:06:31.295Z,73.71
2019-05-01T04:09:04.889Z,72.71
2019-05-01T04:11:36.214Z,71.69
2019-05-01T04:14:08.392Z,70.92
2019-05-01T04:16:41.514Z,69.95
2019-05-01T04:19:13.166Z,69.26
2019-05-01T04:21:45.871Z,68.28
2019-05-01T04:24:19.025Z,67.60
2019-05-01T04:26:50.086Z,66.83
2019-05-01T04:29:24.056Z,65.89
2019-05-01T04:31:56.749Z,65.19
2019-05-01T04:34:29.591Z,64.20
2019-05-01T04:37:02.898Z,63.36
2019-05-01T04:39:35.855Z,62.80
2019-05-01T04:42:06.908Z,62.39
2019-05-01T04:44:38.210Z,61.62
2019-05-01T04:47:09.454Z,60.82
2019-05-01T04:49:41.134Z,59.80
2019-05-01T04:52:12.427Z,59.11
2019-05-01T04:54:43.702Z,58.42
2019-05-01T04:57:15.455Z,57.63
2019-05-01T04:59:48.689Z,56.97
2019-05-01T05:02:27.701Z,56.26
2019-05-01T05:04:58.770Z,55.48
2019-05-01T05:07:29.926Z,54.96
2019-05-01T05:10:02.467Z,54.44
2019-05-01T05:12:35.239Z,53.74
2019-05-01T05:15:09.084Z,52.98
2019-05-01T05:17:40.115Z,52.46
2019-05-01T05:20:11.291Z,51.86
2019-05-01T05:22:43.015Z,51.42
2019-05-01T05:25:14.062Z,50.98
2019-05-01T05:27:47.863Z,50.55
2019-05-01T05:30:23.494Z,50.14
2019-05-01T05:32:56.385Z,49.75
2019-05-01T05:35:29.531Z,49.21
2019-05-01T05:38:07.972Z,48.79
2019-05-01T05:40:40.123Z,48.21
2019-05-01T05:43:11.272Z,47.98
2019-05-01T05:45:44.443Z,47.79
2019-05-01T05:48:17.092Z,47.39
2019-05-01T05:51:10.896Z,46.99
2019-05-01T05:53:44.960Z,46.84
2019-05-01T05:56:21.995Z,46.63
2019-05-01T05:59:01.694Z,46.60
2019-05-01T06:01:42.698Z,46.34
2019-05-01T06:04:34.807Z,45.78
2019-05-01T06:07:11.490Z,45.48
2019-05-01T06:09:48.496Z,45.13
2019-05-01T06:12:33.160Z,44.64
2019-05-01T06:15:06.386Z,44.32
2019-05-01T06:17:53.108Z,44.01
2019-05-01T06:20:32.500Z,43.72
2019-05-01T06:23:06.630Z,43.37
2019-05-01T06:25:40.740Z,42.95
2019-05-01T06:28:12.905Z,42.94
2019-05-01T06:30:47.060Z,42.58
2019-05-01T06:33:17.555Z,42.45
2019-05-01T06:35:48.593Z,42.32
2019-05-01T06:38:19.673Z,42.20
2019-05-01T06:40:53.067Z,42.04
2019-05-01T06:43:29.903Z,41.72
2019-05-01T06:46:11.705Z,41.53
2019-05-01T06:48:53.520Z,41.50
2019-05-01T06:51:36.179Z,41.19
2019-05-01T06:54:16.351Z,41.21
2019-05-01T06:56:49.943Z,41.07
2019-05-01T06:59:26.364Z,40.65
2019-05-01T07:01:58.316Z,40.18
2019-05-01T07:04:32.299Z,39.93
2019-05-01T07:07:06.903Z,39.83
2019-05-01T07:09:38.068Z,39.86
2019-05-01T07:12:12.247Z,39.62
2019-05-01T07:14:47.052Z,39.67
2019-05-01T07:17:19.254Z,39.53
2019-05-01T07:20:16.398Z,39.46
2019-05-01T07:22:44.788Z,39.20
2019-05-01T07:25:18.991Z,38.76
2019-05-01T07:27:53.939Z,39.01
2019-05-01T07:30:26.071Z,38.83
2019-05-01T07:32:57.781Z,38.62
2019-05-01T07:35:33.015Z,38.25
2019-05-01T07:38:03.463Z,37.63
2019-05-01T07:40:34.854Z,37.46
2019-05-01T07:43:19.104Z,37.22
2019-05-01T07:45:51.965Z,37.30
2019-05-01T07:48:36.118Z,37.36
2019-05-01T07:51:08.753Z,37.42
2019-05-01T07:53:40.376Z,37.21
2019-05-01T07:56:11.496Z,37.13
2019-05-01T07:58:42.599Z,36.53
2019-05-01T08:01:21.083Z,36.07
2019-05-01T08:03:55.207Z,36.20
2019-05-01T08:06:27.108Z,35.16
2019-05-01T08:08:58.131Z,35.87
2019-05-01T08:11:29.189Z,35.36
2019-05-01T08:14:07.350Z,35.25
2019-05-01T08:16:37.818Z,35.15
2019-05-01T08:19:17.514Z,34.98
2019-05-01T08:21:57.040Z,35.22
2019-05-01T08:24:26.845Z,35.28
2019-05-01T08:26:57.957Z,35.27
2019-05-01T08:29:45.830Z,35.01
2019-05-01T08:32:33.678Z,35.44
2019-05-01T08:35:08.487Z,34.70
2019-05-01T08:37:40.543Z,34.59
2019-05-01T08:40:20.410Z,34.24
2019-05-01T08:42:48.957Z,33.95
2019-05-01T08:45:30.839Z,33.76
2019-05-01T08:48:15.701Z,33.46
2019-05-01T08:50:46.902Z,30.89
2019-05-01T08:53:21.783Z,32.11
2019-05-01T08:55:52.379Z,32.77
2019-05-01T08:58:23.528Z,32.50
2019-05-01T09:00:54.607Z,32.62
2019-05-01T09:03:25.699Z,32.38
2019-05-01T09:05:57.716Z,31.92
2019-05-01T09:08:32.057Z,31.88
2019-05-01T09:11:03.467Z,31.72
2019-05-01T09:13:34.551Z,32.04
2019-05-01T09:16:05.636Z,32.08
2019-05-01T09:18:36.702Z,31.86
2019-05-01T09:21:07.811Z,32.44
2019-05-01T09:23:39.764Z,32.19
2019-05-01T09:26:30.539Z,32.38
2019-05-01T09:29:11.083Z,31.97
2019-05-01T09:31:42.369Z,31.85
2019-05-01T09:34:19.146Z,30.95
2019-05-01T09:36:47.190Z,30.81
2019-05-01T09:39:19.915Z,30.98
2019-05-01T09:41:51.015Z,31.31
2019-05-01T09:44:25.356Z,31.25
2019-05-01T09:47:02.517Z,30.83
2019-05-01T09:49:33.665Z,30.05
2019-05-01T09:52:23.409Z,30.89
2019-05-01T09:54:56.757Z,30.76
2019-05-01T09:57:27.922Z,29.79
2019-05-01T09:59:59.083Z,30.40
2019-05-01T10:02:33.463Z,29.98
2019-05-01T10:05:07.943Z,29.58
2019-05-01T10:07:39.204Z,29.72
2019-05-01T10:10:11.145Z,29.01
2019-05-01T10:12:46.874Z,29.14
2019-05-01T10:15:16.025Z,28.36
2019-05-01T10:17:47.184Z,29.11
2019-05-01T10:20:18.336Z,28.16
2019-05-01T10:22:49.469Z,27.98
2019-05-01T10:25:21.385Z,28.25
2019-05-01T10:27:54.062Z,27.83
2019-05-01T10:30:31.698Z,29.00
2019-05-01T10:33:03.713Z,29.15
2019-05-01T10:35:42.965Z,29.06
2019-05-01T10:38:10.677Z,28.55
2019-05-01T10:40:42.854Z,28.36
2019-05-01T10:43:14.014Z,28.09
2019-05-01T10:45:45.106Z,34.28
2019-05-01T10:48:16.145Z,35.41
2019-05-01T10:50:47.207Z,36.13
2019-05-01T10:53:18.278Z,36.72
2019-05-01T10:55:49.488Z,37.78
2019-05-01T10:58:20.534Z,38.53
2019-05-01T11:00:53.287Z,39.79
2019-05-01T11:03:24.310Z,40.50
2019-05-01T11:05:56.408Z,40.60
2019-05-01T11:08:27.559Z,40.66
2019-05-01T11:11:01.034Z,41.01
2019-05-01T11:13:33.674Z,40.69
2019-05-01T11:16:05.757Z,40.29
2019-05-01T11:18:36.798Z,40.27
2019-05-01T11:21:07.878Z,40.85
2019-05-01T11:23:38.936Z,41.79
2019-05-01T11:26:10.862Z,41.95
2019-05-01T11:28:41.894Z,42.39
2019-05-01T11:31:14.539Z,42.28
2019-05-01T11:33:59.416Z,42.86
2019-05-01T11:36:48.476Z,43.22
2019-05-01T11:39:21.070Z,42.89
2019-05-01T11:42:06.690Z,42.05
2019-05-01T11:44:37.732Z,42.04
2019-05-01T11:47:08.834Z,42.74
2019-05-01T11:49:39.907Z,43.33
2019-05-01T11:52:11.078Z,43.72
2019-05-01T11:54:42.167Z,43.00
2019-05-01T11:57:14.114Z,42.79
2019-05-01T11:59:45.302Z,42.96
2019-05-01T12:02:16.462Z,42.26
2019-05-01T12:04:47.667Z,42.57
2019-05-01T12:07:20.065Z,41.90
2019-05-01T12:09:51.769Z,41.48
2019-05-01T12:12:25.403Z,40.62
2019-05-01T12:14:57.362Z,40.35
2019-05-01T12:17:33.758Z,40.79
2019-05-01T12:20:08.827Z,39.94
2019-05-01T12:22:40.158Z,40.31
2019-05-01T12:25:11.325Z,40.03
2019-05-01T12:27:45.090Z,39.83
2019-05-01T12:30:17.752Z,39.25
2019-05-01T12:32:49.176Z,39.31
2019-05-01T12:35:20.386Z,38.75
2019-05-01T12:37:55.410Z,38.36
2019-05-01T12:40:26.411Z,38.31
2019-05-01T12:42:58.366Z,38.48
2019-05-01T12:45:30.750Z,38.00
2019-05-01T12:48:03.483Z,37.96
2019-05-01T12:50:35.878Z,37.68
2019-05-01T12:53:15.300Z,37.85
2019-05-01T12:55:49.243Z,37.94
2019-05-01T12:58:28.961Z,37.65
2019-05-01T13:01:03.254Z,37.37
2019-05-01T13:03:35.232Z,36.94
2019-05-01T13:06:07.678Z,37.15
2019-05-01T13:08:39.765Z,36.62
2019-05-01T13:11:11.913Z,36.18
2019-05-01T13:13:43.949Z,36.06
2019-05-01T13:16:15.132Z,36.35
2019-05-01T13:18:46.207Z,36.43
2019-05-01T13:21:17.353Z,36.45
2019-05-01T13:23:54.304Z,36.12
2019-05-01T13:26:30.620Z,36.38
2019-05-01T13:29:13.056Z,36.63
2019-05-01T13:31:51.529Z,37.45
2019-05-01T13:34:22.848Z,37.65
2019-05-01T13:37:02.784Z,38.28
2019-05-01T13:39:26.895Z,37.84
2019-05-01T13:41:58.077Z,38.19
2019-05-01T13:44:30.120Z,37.77
2019-05-01T13:47:01.965Z,38.15
2019-05-01T13:49:33.211Z,37.52
2019-05-01T13:52:04.440Z,37.66
2019-05-01T13:54:35.714Z,38.60
2019-05-01T13:57:06.947Z,38.77
2019-05-01T13:59:38.239Z,37.80
2019-05-01T14:02:09.511Z,37.99
2019-05-01T14:04:40.648Z,37.77
2019-05-01T14:07:16.608Z,39.63
2019-05-01T14:09:44.531Z,44.41
2019-05-01T14:12:15.620Z,47.29
2019-05-01T14:14:47.792Z,48.39
2019-05-01T14:17:18.863Z,49.97
2019-05-01T14:20:03.807Z,50.47
2019-05-01T14:22:36.635Z,50.51
2019-05-01T14:25:09.498Z,52.09
2019-05-01T14:27:41.955Z,53.29
2019-05-01T14:30:15.340Z,54.59
2019-05-01T14:32:46.474Z,55.55
2019-05-01T14:35:17.652Z,57.41
2019-05-01T14:37:48.729Z,59.13
2019-05-01T14:40:20.241Z,60.71
2019-05-01T14:42:52.410Z,62.36
2019-05-01T14:45:24.359Z,64.07
2019-05-01T14:47:56.960Z,65.22
2019-05-01T14:50:28.136Z,65.84
2019-05-01T14:52:59.207Z,66.62
2019-05-01T14:55:30.302Z,66.48
2019-05-01T14:58:02.872Z,66.91
2019-05-01T15:00:34.891Z,67.22
2019-05-01T15:03:06.052Z,68.19
2019-05-01T15:05:37.592Z,68.20
2019-05-01T15:08:08.650Z,68.46
2019-05-01T15:10:40.186Z,69.27
2019-05-01T15:13:16.007Z,69.20
2019-05-01T15:16:07.393Z,69.37
2019-05-01T15:18:58.037Z,70.05
2019-05-01T15:21:29.055Z,69.56
2019-05-01T15:24:00.148Z,69.69
2019-05-01T15:26:31.227Z,70.06
2019-05-01T15:29:02.314Z,69.98
2019-05-01T15:31:34.290Z,69.44
2019-05-01T15:34:11.870Z,69.29
2019-05-01T15:36:43.230Z,69.41
2019-05-01T15:39:21.941Z,69.15
2019-05-01T15:42:03.834Z,69.40
2019-05-01T15:44:39.355Z,69.16
2019-05-01T15:47:11.348Z,68.79
2019-05-01T15:49:43.679Z,68.58
2019-05-01T15:52:16.414Z,68.82
2019-05-01T15:54:47.592Z,68.93
2019-05-01T15:57:18.923Z,68.61
2019-05-01T15:59:50.328Z,68.02
2019-05-01T16:02:22.257Z,68.31
2019-05-01T16:04:53.412Z,68.10
2019-05-01T16:07:25.214Z,67.75
2019-05-01T16:09:56.339Z,67.63
2019-05-01T16:12:33.975Z,67.55
2019-05-01T16:15:09.183Z,67.66
2019-05-01T16:17:43.231Z,67.33
2019-05-01T16:20:16.766Z,67.33
2019-05-01T16:22:47.199Z,67.42
2019-05-01T16:25:19.808Z,67.17
2019-05-01T16:27:52.477Z,66.90
2019-05-01T16:30:26.621Z,66.80
2019-05-01T16:33:00.271Z,66.92
2019-05-01T16:35:32.835Z,67.14
2019-05-01T16:38:05.560Z,66.87
2019-05-01T16:40:40.965Z,67.25
2019-05-01T16:43:12.549Z,67.44
2019-05-01T16:45:45.168Z,67.33
2019-05-01T16:48:17.899Z,68.07
2019-05-01T16:50:50.470Z,67.98
2019-05-01T16:53:21.542Z,67.82
2019-05-01T16:55:52.694Z,68.27
2019-05-01T16:58:24.074Z,68.42
2019-05-01T17:00:58.818Z,68.60
2019-05-01T17:03:37.744Z,68.99
2019-05-01T17:06:16.116Z,68.87
2019-05-01T17:08:48.740Z,69.13
2019-05-01T17:11:21.378Z,69.26
2019-05-01T17:13:52.434Z,69.33
2019-05-01T17:16:23.479Z,69.79
2019-05-01T17:18:55.858Z,69.97
2019-05-01T17:21:26.906Z,70.12
2019-05-01T17:23:58.230Z,70.34
2019-05-01T17:26:30.406Z,69.94
2019-05-01T17:29:01.586Z,70.31
2019-05-01T17:31:32.780Z,70.26
2019-05-01T17:34:03.990Z,70.39
2019-05-01T17:36:35.110Z,70.61
2019-05-01T17:39:08.176Z,70.61
2019-05-01T17:41:39.297Z,71.06
2019-05-01T17:44:10.388Z,70.86
2019-05-01T17:46:41.818Z,70.92
2019-05-01T17:49:16.796Z,71.19
2019-05-01T17:51:47.950Z,71.14
2019-05-01T17:54:19.014Z,71.04
2019-05-01T17:56:53.727Z,71.27
2019-05-01T17:59:26.011Z,71.58
2019-05-01T18:02:16.934Z,71.69
2019-05-01T18:05:05.667Z,71.24
2019-05-01T18:07:36.725Z,70.92
2019-05-01T18:10:09.964Z,71.14
2019-05-01T18:12:44.057Z,70.72
2019-05-01T18:15:15.321Z,71.10
2019-05-01T18:17:46.454Z,70.92
2019-05-01T18:20:19.943Z,70.85
2019-05-01T18:23:08.410Z,71.14
2019-05-01T18:25:47.797Z,71.48
2019-05-01T18:28:29.869Z,71.43
2019-05-01T18:31:00.096Z,72.15
2019-05-01T18:33:31.125Z,72.32
2019-05-01T18:36:04.152Z,72.41
2019-05-01T18:38:42.990Z,72.87
2019-05-01T18:41:19.961Z,72.89
2019-05-01T18:43:51.020Z,73.36
2019-05-01T18:46:23.590Z,73.97
2019-05-01T18:48:56.221Z,74.24
2019-05-01T18:51:28.194Z,74.55
2019-05-01T18:53:59.528Z,74.82
2019-05-01T18:56:30.619Z,74.93
2019-05-01T18:59:01.691Z,75.25
2019-05-01T19:01:32.855Z,75.00
2019-05-01T19:04:05.537Z,75.27
2019-05-01T19:06:41.773Z,75.63
2019-05-01T19:09:15.216Z,75.61
2019-05-01T19:11:42.741Z,76.19
2019-05-01T19:14:13.923Z,76.54
2019-05-01T19:16:50.842Z,76.53
2019-05-01T19:19:25.965Z,76.46
2019-05-01T19:21:57.875Z,76.42
2019-05-01T19:24:32.604Z,76.43
2019-05-01T19:27:05.643Z,76.66
2019-05-01T19:29:36.768Z,76.42
2019-05-01T19:32:09.779Z,76.38
2019-05-01T19:34:40.875Z,77.05
2019-05-01T19:37:16.471Z,77.00
2019-05-01T19:39:48.944Z,76.96
2019-05-01T19:42:21.557Z,77.14
2019-05-01T19:44:56.144Z,76.70
2019-05-01T19:47:28.613Z,76.79
2019-05-01T19:50:06.648Z,76.71
2019-05-01T19:52:37.813Z,76.90
2019-05-01T19:55:07.749Z,77.07
2019-05-01T19:57:42.061Z,76.95
2019-05-01T20:00:14.917Z,76.84
2019-05-01T20:02:46.096Z,76.92
2019-05-01T20:05:17.280Z,77.24
2019-05-01T20:07:51.175Z,77.05
2019-05-01T20:10:23.695Z,77.23
2019-05-01T20:12:54.767Z,77.28
2019-05-01T20:15:27.433Z,77.38
2019-05-01T20:18:00.098Z,77.62
2019-05-01T20:20:31.280Z,77.46
2019-05-01T20:23:04.128Z,77.40
2019-05-01T20:25:35.174Z,77.60
2019-05-01T20:28:09.349Z,77.62
2019-05-01T20:30:42.006Z,77.70
2019-05-01T20:33:13.124Z,77.57
2019-05-01T20:35:44.188Z,77.34
2019-05-01T20:38:18.348Z,77.27
2019-05-01T20:40:52.348Z,77.39
2019-05-01T20:43:23.580Z,77.51
2019-05-01T20:45:54.648Z,77.70
2019-05-01T20:48:25.842Z,77.58
2019-05-01T20:50:58.349Z,77.28
2019-05-01T20:53:30.308Z,77.01
2019-05-01T20:56:02.961Z,77.01
2019-05-01T20:58:34.129Z,77.25
2019-05-01T21:01:05.542Z,77.29
2019-05-01T21:03:38.381Z,76.98
2019-05-01T21:06:11.102Z,76.98
2019-05-01T21:08:50.117Z,76.83
2019-05-01T21:11:26.234Z,76.88
2019-05-01T21:14:15.576Z,76.39
2019-05-01T21:16:32.948Z,76.36
2019-05-01T21:19:03.487Z,76.52
2019-05-01T21:21:34.566Z,76.32
2019-05-01T21:24:05.766Z,76.11
2019-05-01T21:26:38.628Z,75.91
2019-05-01T21:29:09.724Z,75.77
2019-05-01T21:31:40.986Z,75.61
2019-05-01T21:34:14.380Z,75.55
2019-05-01T21:36:47.669Z,75.51
2019-05-01T21:39:19.895Z,75.51
2019-05-01T21:41:50.796Z,75.49
2019-05-01T21:44:23.370Z,75.34
2019-05-01T21:46:54.788Z,74.95
2019-05-01T21:49:28.624Z,74.71
2019-05-01T21:52:03.577Z,74.83
2019-05-01T21:54:35.610Z,74.83
2019-05-01T21:57:06.846Z,74.80
2019-05-01T21:59:43.700Z,74.65
2019-05-01T22:02:12.432Z,74.69
2019-05-01T22:04:44.980Z,74.78
2019-05-01T22:07:16.125Z,74.41
2019-05-01T22:09:50.559Z,74.44
2019-05-01T22:12:20.554Z,74.15
2019-05-01T22:14:56.300Z,74.19
2019-05-01T22:17:33.419Z,74.17
2019-05-01T22:20:07.490Z,74.23
2019-05-01T22:22:44.019Z,74.15
2019-05-01T22:25:18.355Z,73.81
2019-05-01T22:27:51.117Z,73.99
2019-05-01T22:30:27.070Z,73.91
2019-05-01T22:32:59.642Z,73.62
2019-05-01T22:35:32.388Z,73.53
2019-05-01T22:38:05.458Z,73.34
2019-05-01T22:41:05.526Z,73.44
2019-05-01T22:43:25.741Z,73.23
2019-05-01T22:46:01.754Z,73.09
2019-05-01T22:48:29.648Z,73.09
2019-05-01T22:51:02.393Z,73.08
2019-05-01T22:53:33.474Z,72.91
2019-05-01T22:56:05.436Z,72.86
2019-05-01T22:58:40.872Z,72.92
2019-05-01T23:01:13.398Z,72.85
2019-05-01T23:03:49.001Z,72.84
2019-05-01T23:06:21.683Z,72.65
2019-05-01T23:08:52.725Z,72.59
2019-05-01T23:11:29.373Z,72.35
2019-05-01T23:14:01.991Z,72.14
2019-05-01T23:16:34.921Z,72.20
2019-05-01T23:19:06.104Z,71.90
2019-05-01T23:21:39.601Z,71.69
2019-05-01T23:24:12.239Z,71.53
2019-05-01T23:26:48.085Z,71.22
2019-05-01T23:29:17.909Z,71.39
2019-05-01T23:31:49.038Z,71.29
2019-05-01T23:34:21.218Z,71.13
2019-05-01T23:36:52.870Z,71.18
2019-05-01T23:39:23.947Z,71.11
2019-05-01T23:41:56.508Z,71.21
2019-05-01T23:44:27.610Z,71.29
2019-05-01T23:47:00.284Z,71.10
2019-05-01T23:49:31.307Z,71.18
2019-05-01T23:52:03.337Z,71.11
2019-05-01T23:54:35.256Z,71.16
2019-05-01T23:57:07.140Z,71.32
2019-05-01T23:59:38.298Z,71.46
